sensor_id;sensor_type;location;lat;lon;timestamp;temperature;humidity
39585;DHT22;25278;53.674;10.014;2022-12-07T04:10:56;2.40;99.90
39585;DHT22;25278;53.674;10.014;2022-12-07T04:13:22;2.40;99.90
39585;DHT22;25278;53.674;10.014;2022-12-07T04:15:47;2.30;99.90
39585;DHT22;25278;53.674;10.014;2022-12-07T04:18:13;2.40;99.90
39585;DHT22;25278;53.674;10.014;2022-12-07T04:20:38;2.40;99.90
39585;DHT22;25278;53.674;10.014;2022-12-07T04:23:04;2.30;99.90
39585;DHT22;25278;53.674;10.014;2022-12-07T04:25:29;2.40;99.90
39585;DHT22;25278;53.674;10.014;2022-12-07T04:27:55;2.30;99.90
39585;DHT22;25278;53.674;10.014;2022-12-07T04:30:20;2.30;99.90
39585;DHT22;25278;53.674;10.014;2022-12-07T04:32:46;2.30;99.90
39585;DHT22;25278;53.674;10.014;2022-12-07T04:35:12;2.20;99.90
39585;DHT22;25278;53.674;10.014;2022-12-07T04:37:37;2.30;99.90
39585;DHT22;25278;53.674;10.014;2022-12-07T04:40:06;2.30;99.90
39585;DHT22;25278;53.674;10.014;2022-12-07T04:42:32;2.20;99.90
39585;DHT22;25278;53.674;10.014;2022-12-07T04:44:58;2.30;99.90
39585;DHT22;25278;53.674;10.014;2022-12-07T04:47:23;2.20;99.90
39585;DHT22;25278;53.674;10.014;2022-12-07T04:49:49;2.20;99.90
39585;DHT22;25278;53.674;10.014;2022-12-07T04:52:14;2.20;99.90
39585;DHT22;25278;53.674;10.014;2022-12-07T04:54:40;2.20;99.90
39585;DHT22;25278;53.674;10.014;2022-12-07T04:57:06;2.20;99.90
39585;DHT22;25278;53.674;10.014;2022-12-07T04:59:31;2.20;99.90
39585;DHT22;25278;53.674;10.014;2022-12-07T05:01:57;2.20;99.90
39585;DHT22;25278;53.674;10.014;2022-12-07T05:04:22;2.10;99.90
39585;DHT22;25278;53.674;10.014;2022-12-07T05:06:48;2.10;99.90
39585;DHT22;25278;53.674;10.014;2022-12-07T05:09:13;2.20;99.90
39585;DHT22;25278;53.674;10.014;2022-12-07T05:11:39;2.20;99.90
39585;DHT22;25278;53.674;10.014;2022-12-07T05:14:25;2.10;99.90
39585;DHT22;25278;53.674;10.014;2022-12-07T05:16:51;2.10;99.90
39585;DHT22;25278;53.674;10.014;2022-12-07T05:19:17;2.10;99.90
39585;DHT22;25278;53.674;10.014;2022-12-07T05:21:44;2.10;99.90
39585;DHT22;25278;53.674;10.014;2022-12-07T05:24:11;2.10;99.90
39585;DHT22;25278;53.674;10.014;2022-12-07T05:26:37;2.00;99.90
39585;DHT22;25278;53.674;10.014;2022-12-07T05:29:03;2.00;99.90
39585;DHT22;25278;53.674;10.014;2022-12-07T05:31:29;2.00;99.90
39585;DHT22;25278;53.674;10.014;2022-12-07T05:33:54;1.90;99.90
39585;DHT22;25278;53.674;10.014;2022-12-07T05:36:20;2.00;99.90
39585;DHT22;25278;53.674;10.014;2022-12-07T05:38:46;2.00;99.90
39585;DHT22;25278;53.674;10.014;2022-12-07T05:41:15;2.10;99.90
39585;DHT22;25278;53.674;10.014;2022-12-07T05:43:59;2.10;99.90
39585;DHT22;25278;53.674;10.014;2022-12-07T05:46:25;2.00;99.90
39585;DHT22;25278;53.674;10.014;2022-12-07T05:48:50;2.00;99.90
39585;DHT22;25278;53.674;10.014;2022-12-07T05:51:16;2.00;99.90
39585;DHT22;25278;53.674;10.014;2022-12-07T05:53:41;2.00;99.90
39585;DHT22;25278;53.674;10.014;2022-12-07T05:56:07;2.00;99.90
39585;DHT22;25278;53.674;10.014;2022-12-07T05:58:32;1.90;99.90
39585;DHT22;25278;53.674;10.014;2022-12-07T06:01:17;1.90;99.90
39585;DHT22;25278;53.674;10.014;2022-12-07T06:03:42;1.80;99.90
39585;DHT22;25278;53.674;10.014;2022-12-07T06:06:08;1.90;99.90
39585;DHT22;25278;53.674;10.014;2022-12-07T06:08:33;1.90;99.90
39585;DHT22;25278;53.674;10.014;2022-12-07T06:10:59;1.80;99.90
39585;DHT22;25278;53.674;10.014;2022-12-07T06:13:43;1.80;99.90
39585;DHT22;25278;53.674;10.014;2022-12-07T06:16:08;1.70;99.90
39585;DHT22;25278;53.674;10.014;2022-12-07T06:18:34;1.70;99.90
39585;DHT22;25278;53.674;10.014;2022-12-07T06:20:59;1.80;99.90
39585;DHT22;25278;53.674;10.014;2022-12-07T06:23:25;1.80;99.90
39585;DHT22;25278;53.674;10.014;2022-12-07T06:25:50;1.80;99.90
39585;DHT22;25278;53.674;10.014;2022-12-07T06:28:16;1.70;99.90
39585;DHT22;25278;53.674;10.014;2022-12-07T06:30:41;1.70;99.90
39585;DHT22;25278;53.674;10.014;2022-12-07T06:33:07;1.60;99.90
39585;DHT22;25278;53.674;10.014;2022-12-07T06:35:33;1.60;99.90
39585;DHT22;25278;53.674;10.014;2022-12-07T06:37:59;1.70;99.90
39585;DHT22;25278;53.674;10.014;2022-12-07T06:40:24;1.60;99.90
39585;DHT22;25278;53.674;10.014;2022-12-07T06:42:50;1.60;99.90
39585;DHT22;25278;53.674;10.014;2022-12-07T06:45:16;1.70;99.90
39585;DHT22;25278;53.674;10.014;2022-12-07T06:47:41;1.70;99.90
39585;DHT22;25278;53.674;10.014;2022-12-07T06:50:07;1.80;99.90
39585;DHT22;25278;53.674;10.014;2022-12-07T06:52:33;1.90;99.90
39585;DHT22;25278;53.674;10.014;2022-12-07T06:54:59;1.90;99.90
39585;DHT22;25278;53.674;10.014;2022-12-07T06:57:24;1.90;99.90
39585;DHT22;25278;53.674;10.014;2022-12-07T06:59:50;1.90;99.90
39585;DHT22;25278;53.674;10.014;2022-12-07T07:02:16;1.90;99.90
39585;DHT22;25278;53.674;10.014;2022-12-07T07:04:42;1.80;99.90
39585;DHT22;25278;53.674;10.014;2022-12-07T07:07:07;1.90;99.90
39585;DHT22;25278;53.674;10.014;2022-12-07T07:09:33;1.90;99.90
39585;DHT22;25278;53.674;10.014;2022-12-07T07:11:58;1.90;99.90
39585;DHT22;25278;53.674;10.014;2022-12-07T07:14:24;2.00;99.90
39585;DHT22;25278;53.674;10.014;2022-12-07T07:16:49;2.00;99.90
39585;DHT22;25278;53.674;10.014;2022-12-07T07:19:15;2.10;99.90
39585;DHT22;25278;53.674;10.014;2022-12-07T07:21:40;2.00;99.90
39585;DHT22;25278;53.674;10.014;2022-12-07T07:24:06;2.10;99.90
39585;DHT22;25278;53.674;10.014;2022-12-07T07:26:32;2.00;99.90
39585;DHT22;25278;53.674;10.014;2022-12-07T07:28:58;2.10;99.90
39585;DHT22;25278;53.674;10.014;2022-12-07T07:31:23;2.00;99.90
39585;DHT22;25278;53.674;10.014;2022-12-07T07:33:49;2.10;99.90
39585;DHT22;25278;53.674;10.014;2022-12-07T07:36:14;2.10;99.90
39585;DHT22;25278;53.674;10.014;2022-12-07T07:38:40;2.10;99.90
39585;DHT22;25278;53.674;10.014;2022-12-07T07:41:05;2.10;99.90
39585;DHT22;25278;53.674;10.014;2022-12-07T07:43:32;2.10;99.90
39585;DHT22;25278;53.674;10.014;2022-12-07T07:45:57;2.10;99.90
39585;DHT22;25278;53.674;10.014;2022-12-07T07:48:23;2.10;99.90
39585;DHT22;25278;53.674;10.014;2022-12-07T07:50:50;2.20;99.90
39585;DHT22;25278;53.674;10.014;2022-12-07T07:53:16;2.20;99.90
39585;DHT22;25278;53.674;10.014;2022-12-07T07:55:41;2.20;99.90
39585;DHT22;25278;53.674;10.014;2022-12-07T07:58:12;2.20;99.90
39585;DHT22;25278;53.674;10.014;2022-12-07T08:00:37;2.30;99.90
39585;DHT22;25278;53.674;10.014;2022-12-07T08:03:03;2.30;99.90
39585;DHT22;25278;53.674;10.014;2022-12-07T08:05:28;2.30;99.90
39585;DHT22;25278;53.674;10.014;2022-12-07T08:07:54;2.30;99.90
39585;DHT22;25278;53.674;10.014;2022-12-07T08:10:19;2.30;99.90
39585;DHT22;25278;53.674;10.014;2022-12-07T08:12:45;2.30;99.90
39585;DHT22;25278;53.674;10.014;2022-12-07T08:15:30;2.30;99.90
39585;DHT22;25278;53.674;10.014;2022-12-07T08:17:55;2.50;99.90
39585;DHT22;25278;53.674;10.014;2022-12-07T08:20:21;2.50;99.90
39585;DHT22;25278;53.674;10.014;2022-12-07T08:22:47;2.60;99.90
39585;DHT22;25278;53.674;10.014;2022-12-07T08:25:12;2.60;99.90
39585;DHT22;25278;53.674;10.014;2022-12-07T08:27:38;2.70;99.90
39585;DHT22;25278;53.674;10.014;2022-12-07T08:30:04;2.80;99.90
39585;DHT22;25278;53.674;10.014;2022-12-07T08:32:29;2.80;99.90
39585;DHT22;25278;53.674;10.014;2022-12-07T08:34:55;2.80;99.90
39585;DHT22;25278;53.674;10.014;2022-12-07T08:37:20;2.80;99.90
39585;DHT22;25278;53.674;10.014;2022-12-07T08:39:46;2.80;99.90
39585;DHT22;25278;53.674;10.014;2022-12-07T08:42:11;2.70;99.90
39585;DHT22;25278;53.674;10.014;2022-12-07T08:44:37;2.70;99.90
39585;DHT22;25278;53.674;10.014;2022-12-07T08:47:04;2.80;99.90
39585;DHT22;25278;53.674;10.014;2022-12-07T08:49:36;2.80;99.90
39585;DHT22;25278;53.674;10.014;2022-12-07T08:52:04;2.90;99.90
39585;DHT22;25278;53.674;10.014;2022-12-07T08:54:30;2.90;99.90
39585;DHT22;25278;53.674;10.014;2022-12-07T08:56:56;3.00;99.90
39585;DHT22;25278;53.674;10.014;2022-12-07T08:59:22;3.10;99.90
39585;DHT22;25278;53.674;10.014;2022-12-07T09:01:48;3.10;99.90
39585;DHT22;25278;53.674;10.014;2022-12-07T09:04:14;3.10;99.90
39585;DHT22;25278;53.674;10.014;2022-12-07T09:06:42;3.00;99.90
39585;DHT22;25278;53.674;10.014;2022-12-07T09:09:08;3.10;99.90
39585;DHT22;25278;53.674;10.014;2022-12-07T09:11:34;3.10;99.90
39585;DHT22;25278;53.674;10.014;2022-12-07T09:14:00;3.30;99.90
39585;DHT22;25278;53.674;10.014;2022-12-07T09:16:25;3.20;99.90
39585;DHT22;25278;53.674;10.014;2022-12-07T09:18:51;3.20;99.90
39585;DHT22;25278;53.674;10.014;2022-12-07T09:21:16;3.30;99.90
39585;DHT22;25278;53.674;10.014;2022-12-07T09:23:42;3.30;99.90
39585;DHT22;25278;53.674;10.014;2022-12-07T09:26:08;3.40;99.90
39585;DHT22;25278;53.674;10.014;2022-12-07T09:28:33;3.50;99.90
39585;DHT22;25278;53.674;10.014;2022-12-07T09:30:59;3.60;99.90
39585;DHT22;25278;53.674;10.014;2022-12-07T09:33:25;3.60;99.90
39585;DHT22;25278;53.674;10.014;2022-12-07T09:35:51;3.70;99.90
39585;DHT22;25278;53.674;10.014;2022-12-07T09:38:18;3.60;99.90
39585;DHT22;25278;53.674;10.014;2022-12-07T09:40:45;3.60;99.90
39585;DHT22;25278;53.674;10.014;2022-12-07T09:43:15;3.60;99.90
39585;DHT22;25278;53.674;10.014;2022-12-07T09:45:42;3.70;99.90
39585;DHT22;25278;53.674;10.014;2022-12-07T09:48:19;3.80;99.90
39585;DHT22;25278;53.674;10.014;2022-12-07T09:50:45;3.90;99.90
39585;DHT22;25278;53.674;10.014;2022-12-07T09:53:26;4.00;99.90
39585;DHT22;25278;53.674;10.014;2022-12-07T09:55:53;4.00;99.90
39585;DHT22;25278;53.674;10.014;2022-12-07T09:58:23;4.00;99.90
39585;DHT22;25278;53.674;10.014;2022-12-07T10:00:51;4.10;99.90
39585;DHT22;25278;53.674;10.014;2022-12-07T10:03:18;4.10;99.90
39585;DHT22;25278;53.674;10.014;2022-12-07T10:05:46;4.10;99.90
39585;DHT22;25278;53.674;10.014;2022-12-07T10:08:13;4.20;99.90
39585;DHT22;25278;53.674;10.014;2022-12-07T10:10:39;4.20;99.90
39585;DHT22;25278;53.674;10.014;2022-12-07T10:13:10;4.20;99.90
39585;DHT22;25278;53.674;10.014;2022-12-07T10:15:48;4.20;99.90
39585;DHT22;25278;53.674;10.014;2022-12-07T10:21:11;4.20;99.90
39585;DHT22;25278;53.674;10.014;2022-12-07T10:23:40;4.20;99.90
39585;DHT22;25278;53.674;10.014;2022-12-07T10:28:45;4.30;99.90
39585;DHT22;25278;53.674;10.014;2022-12-07T10:31:17;4.30;99.90
39585;DHT22;25278;53.674;10.014;2022-12-07T10:34:00;4.40;99.90
39585;DHT22;25278;53.674;10.014;2022-12-07T10:36:37;4.40;99.90
39585;DHT22;25278;53.674;10.014;2022-12-07T10:39:10;4.40;99.90
39585;DHT22;25278;53.674;10.014;2022-12-07T10:41:59;4.50;99.90
39585;DHT22;25278;53.674;10.014;2022-12-07T10:44:31;4.60;99.90
39585;DHT22;25278;53.674;10.014;2022-12-07T10:47:25;4.60;99.90
39585;DHT22;25278;53.674;10.014;2022-12-07T10:50:24;4.80;99.90
39585;DHT22;25278;53.674;10.014;2022-12-07T11:01:24;4.90;99.90
39585;DHT22;25278;53.674;10.014;2022-12-07T11:06:55;5.00;99.90
39585;DHT22;25278;53.674;10.014;2022-12-07T11:12:45;5.30;99.90
39585;DHT22;25278;53.674;10.014;2022-12-07T11:15:24;5.40;99.90
39585;DHT22;25278;53.674;10.014;2022-12-07T11:20:44;5.50;99.90
39585;DHT22;25278;53.674;10.014;2022-12-07T11:29:18;5.60;99.90
39585;DHT22;25278;53.674;10.014;2022-12-07T11:34:36;5.60;99.90
39585;DHT22;25278;53.674;10.014;2022-12-07T11:37:03;5.70;99.90
39585;DHT22;25278;53.674;10.014;2022-12-07T11:39:41;5.70;99.90
39585;DHT22;25278;53.674;10.014;2022-12-07T11:42:18;5.80;99.90
39585;DHT22;25278;53.674;10.014;2022-12-07T11:45:20;5.70;99.90
39585;DHT22;25278;53.674;10.014;2022-12-07T11:50:54;6.00;99.90
39585;DHT22;25278;53.674;10.014;2022-12-07T11:53:33;5.90;99.90
39585;DHT22;25278;53.674;10.014;2022-12-07T11:56:14;6.00;99.90
39585;DHT22;25278;53.674;10.014;2022-12-07T12:06:07;7.10;99.90
39585;DHT22;25278;53.674;10.014;2022-12-07T12:08:44;8.30;99.90
39585;DHT22;25278;53.674;10.014;2022-12-07T12:20:29;7.80;99.90
39585;DHT22;25278;53.674;10.014;2022-12-07T12:23:16;7.50;99.90
39585;DHT22;25278;53.674;10.014;2022-12-07T12:25:57;7.50;99.90
39585;DHT22;25278;53.674;10.014;2022-12-07T12:28:29;7.60;99.90
39585;DHT22;25278;53.674;10.014;2022-12-07T12:33:35;7.60;99.90
39585;DHT22;25278;53.674;10.014;2022-12-07T12:47:00;8.70;99.90
39585;DHT22;25278;53.674;10.014;2022-12-07T12:49:36;8.30;99.90
39585;DHT22;25278;53.674;10.014;2022-12-07T12:57:32;9.30;99.90
39585;DHT22;25278;53.674;10.014;2022-12-07T13:00:00;9.80;99.90
39585;DHT22;25278;53.674;10.014;2022-12-07T13:15:52;10.90;99.90
39585;DHT22;25278;53.674;10.014;2022-12-07T13:28:49;10.60;99.90
39585;DHT22;25278;53.674;10.014;2022-12-07T13:33:53;10.90;99.90
39585;DHT22;25278;53.674;10.014;2022-12-07T13:36:25;12.10;99.90
39585;DHT22;25278;53.674;10.014;2022-12-07T13:38:56;12.30;99.90
39585;DHT22;25278;53.674;10.014;2022-12-07T13:41:24;12.10;99.90
39585;DHT22;25278;53.674;10.014;2022-12-07T13:44:00;12.30;99.90
39585;DHT22;25278;53.674;10.014;2022-12-07T13:47:21;12.90;99.90
39585;DHT22;25278;53.674;10.014;2022-12-07T13:49:28;13.40;99.90
39585;DHT22;25278;53.674;10.014;2022-12-07T13:51:55;12.90;99.90
39585;DHT22;25278;53.674;10.014;2022-12-07T13:54:32;12.00;99.90
39585;DHT22;25278;53.674;10.014;2022-12-07T13:56:58;10.90;99.90
39585;DHT22;25278;53.674;10.014;2022-12-07T14:01:52;10.30;99.90
39585;DHT22;25278;53.674;10.014;2022-12-07T14:04:27;8.90;99.90
39585;DHT22;25278;53.674;10.014;2022-12-07T14:06:54;8.20;99.90
39585;DHT22;25278;53.674;10.014;2022-12-07T14:11:49;7.60;99.90
39585;DHT22;25278;53.674;10.014;2022-12-07T14:14:21;6.90;99.90
39585;DHT22;25278;53.674;10.014;2022-12-07T14:17:15;6.70;99.90
39585;DHT22;25278;53.674;10.014;2022-12-07T14:22:37;6.10;99.90
39585;DHT22;25278;53.674;10.014;2022-12-07T14:25:22;6.20;99.90
39585;DHT22;25278;53.674;10.014;2022-12-07T14:28:30;6.00;99.90
39585;DHT22;25278;53.674;10.014;2022-12-07T14:30:56;5.90;99.90
39585;DHT22;25278;53.674;10.014;2022-12-07T14:33:23;5.80;99.90
39585;DHT22;25278;53.674;10.014;2022-12-07T14:35:48;5.70;99.90
39585;DHT22;25278;53.674;10.014;2022-12-07T14:38:15;5.40;99.90
39585;DHT22;25278;53.674;10.014;2022-12-07T14:40:40;5.20;99.90
39585;DHT22;25278;53.674;10.014;2022-12-07T14:43:14;5.20;99.90
39585;DHT22;25278;53.674;10.014;2022-12-07T14:45:40;5.10;99.90
39585;DHT22;25278;53.674;10.014;2022-12-07T14:48:07;5.10;99.90
39585;DHT22;25278;53.674;10.014;2022-12-07T14:50:37;4.80;99.90
39585;DHT22;25278;53.674;10.014;2022-12-07T14:53:11;4.50;99.90
39585;DHT22;25278;53.674;10.014;2022-12-07T14:55:37;4.40;99.90
39585;DHT22;25278;53.674;10.014;2022-12-07T14:58:03;4.40;99.90
39585;DHT22;25278;53.674;10.014;2022-12-07T15:00:29;4.10;99.90
39585;DHT22;25278;53.674;10.014;2022-12-07T15:02:55;4.10;99.90
39585;DHT22;25278;53.674;10.014;2022-12-07T15:05:21;4.00;99.90
39585;DHT22;25278;53.674;10.014;2022-12-07T15:07:47;4.00;99.90
39585;DHT22;25278;53.674;10.014;2022-12-07T15:10:22;3.80;99.90
39585;DHT22;25278;53.674;10.014;2022-12-07T15:12:48;3.80;99.90
39585;DHT22;25278;53.674;10.014;2022-12-07T15:15:14;3.70;99.90
39585;DHT22;25278;53.674;10.014;2022-12-07T15:17:40;3.50;99.90
39585;DHT22;25278;53.674;10.014;2022-12-07T15:20:10;3.50;99.90
39585;DHT22;25278;53.674;10.014;2022-12-07T15:22:36;3.40;99.90
39585;DHT22;25278;53.674;10.014;2022-12-07T15:25:02;3.40;99.90
39585;DHT22;25278;53.674;10.014;2022-12-07T15:27:30;3.50;99.90
39585;DHT22;25278;53.674;10.014;2022-12-07T15:29:55;3.50;99.90
39585;DHT22;25278;53.674;10.014;2022-12-07T15:32:21;3.60;99.90
39585;DHT22;25278;53.674;10.014;2022-12-07T15:34:48;3.50;99.90
39585;DHT22;25278;53.674;10.014;2022-12-07T15:37:15;3.60;99.90
39585;DHT22;25278;53.674;10.014;2022-12-07T15:39:41;3.60;99.90
39585;DHT22;25278;53.674;10.014;2022-12-07T15:42:06;3.60;99.90
39585;DHT22;25278;53.674;10.014;2022-12-07T15:44:32;3.50;99.90
39585;DHT22;25278;53.674;10.014;2022-12-07T15:47:16;3.40;99.90
39585;DHT22;25278;53.674;10.014;2022-12-07T15:49:42;3.40;99.90
39585;DHT22;25278;53.674;10.014;2022-12-07T15:52:08;3.20;99.90
39585;DHT22;25278;53.674;10.014;2022-12-07T15:54:33;3.10;99.90
39585;DHT22;25278;53.674;10.014;2022-12-07T15:56:59;3.10;99.90
39585;DHT22;25278;53.674;10.014;2022-12-07T15:59:26;3.10;99.90
39585;DHT22;25278;53.674;10.014;2022-12-07T16:01:51;3.10;99.90
39585;DHT22;25278;53.674;10.014;2022-12-07T16:04:17;3.10;99.90
39585;DHT22;25278;53.674;10.014;2022-12-07T16:06:42;3.00;99.90
39585;DHT22;25278;53.674;10.014;2022-12-07T16:09:08;3.10;99.90
39585;DHT22;25278;53.674;10.014;2022-12-07T16:11:34;3.00;99.90
39585;DHT22;25278;53.674;10.014;2022-12-07T16:13:59;3.10;99.90
39585;DHT22;25278;53.674;10.014;2022-12-07T16:16:25;3.10;99.90
39585;DHT22;25278;53.674;10.014;2022-12-07T16:18:51;3.20;99.90
39585;DHT22;25278;53.674;10.014;2022-12-07T16:21:17;3.20;99.90
39585;DHT22;25278;53.674;10.014;2022-12-07T16:23:43;3.10;99.90
39585;DHT22;25278;53.674;10.014;2022-12-07T16:26:14;3.10;99.90
39585;DHT22;25278;53.674;10.014;2022-12-07T16:28:40;2.90;99.90
39585;DHT22;25278;53.674;10.014;2022-12-07T16:31:10;2.90;99.90
39585;DHT22;25278;53.674;10.014;2022-12-07T16:33:38;2.90;99.90
39585;DHT22;25278;53.674;10.014;2022-12-07T16:36:05;2.90;99.90
39585;DHT22;25278;53.674;10.014;2022-12-07T16:38:31;2.80;99.90
39585;DHT22;25278;53.674;10.014;2022-12-07T16:40:57;2.70;99.90
39585;DHT22;25278;53.674;10.014;2022-12-07T16:43:23;2.60;99.90
39585;DHT22;25278;53.674;10.014;2022-12-07T16:45:49;2.60;99.90
39585;DHT22;25278;53.674;10.014;2022-12-07T16:48:15;2.60;99.90
39585;DHT22;25278;53.674;10.014;2022-12-07T16:50:41;2.60;99.90
39585;DHT22;25278;53.674;10.014;2022-12-07T16:53:10;2.60;99.90
39585;DHT22;25278;53.674;10.014;2022-12-07T16:55:43;2.60;99.90
39585;DHT22;25278;53.674;10.014;2022-12-07T16:58:09;2.50;99.90
39585;DHT22;25278;53.674;10.014;2022-12-07T17:00:36;2.50;99.90
39585;DHT22;25278;53.674;10.014;2022-12-07T17:03:03;2.60;99.90
39585;DHT22;25278;53.674;10.014;2022-12-07T17:05:28;2.60;99.90
39585;DHT22;25278;53.674;10.014;2022-12-07T17:07:55;2.60;99.90
39585;DHT22;25278;53.674;10.014;2022-12-07T17:10:22;2.60;99.90
39585;DHT22;25278;53.674;10.014;2022-12-07T17:12:48;2.70;99.90
39585;DHT22;25278;53.674;10.014;2022-12-07T17:15:13;2.70;99.90
39585;DHT22;25278;53.674;10.014;2022-12-07T17:17:43;2.70;99.90
39585;DHT22;25278;53.674;10.014;2022-12-07T17:20:09;2.70;99.90
39585;DHT22;25278;53.674;10.014;2022-12-07T17:22:35;2.70;99.90
39585;DHT22;25278;53.674;10.014;2022-12-07T17:25:01;2.70;99.90
39585;DHT22;25278;53.674;10.014;2022-12-07T17:27:26;2.60;99.90
39585;DHT22;25278;53.674;10.014;2022-12-07T17:29:52;2.50;99.90
39585;DHT22;25278;53.674;10.014;2022-12-07T17:32:17;2.40;99.90
39585;DHT22;25278;53.674;10.014;2022-12-07T17:34:43;2.40;99.90
39585;DHT22;25278;53.674;10.014;2022-12-07T17:37:08;2.40;99.90
39585;DHT22;25278;53.674;10.014;2022-12-07T17:39:34;2.40;99.90
39585;DHT22;25278;53.674;10.014;2022-12-07T17:41:59;2.40;99.90
39585;DHT22;25278;53.674;10.014;2022-12-07T17:44:43;2.40;99.90
39585;DHT22;25278;53.674;10.014;2022-12-07T17:47:09;2.40;99.90
39585;DHT22;25278;53.674;10.014;2022-12-07T17:49:35;2.30;99.90
39585;DHT22;25278;53.674;10.014;2022-12-07T17:52:01;2.30;99.90
39585;DHT22;25278;53.674;10.014;2022-12-07T17:54:45;2.30;99.90
39585;DHT22;25278;53.674;10.014;2022-12-07T17:57:10;2.30;99.90
39585;DHT22;25278;53.674;10.014;2022-12-07T17:59:36;2.20;99.90
39585;DHT22;25278;53.674;10.014;2022-12-07T18:02:02;2.20;99.90
39585;DHT22;25278;53.674;10.014;2022-12-07T18:04:28;2.20;99.90
39585;DHT22;25278;53.674;10.014;2022-12-07T18:06:53;2.20;99.90
39585;DHT22;25278;53.674;10.014;2022-12-07T18:09:19;2.10;99.90
39585;DHT22;25278;53.674;10.014;2022-12-07T18:11:46;2.10;99.90
39585;DHT22;25278;53.674;10.014;2022-12-07T18:14:11;2.10;99.90
39585;DHT22;25278;53.674;10.014;2022-12-07T18:16:37;2.10;99.90
39585;DHT22;25278;53.674;10.014;2022-12-07T18:19:04;2.00;99.90
39585;DHT22;25278;53.674;10.014;2022-12-07T18:21:30;2.00;99.90
39585;DHT22;25278;53.674;10.014;2022-12-07T18:24:01;1.90;99.90
39585;DHT22;25278;53.674;10.014;2022-12-07T18:26:28;1.90;99.90
39585;DHT22;25278;53.674;10.014;2022-12-07T18:28:55;2.00;99.90
39585;DHT22;25278;53.674;10.014;2022-12-07T18:31:22;2.00;99.90
39585;DHT22;25278;53.674;10.014;2022-12-07T18:33:48;2.00;99.90
39585;DHT22;25278;53.674;10.014;2022-12-07T18:36:17;2.00;99.90
39585;DHT22;25278;53.674;10.014;2022-12-07T18:38:42;2.00;99.90
39585;DHT22;25278;53.674;10.014;2022-12-07T18:41:10;1.90;99.90
39585;DHT22;25278;53.674;10.014;2022-12-07T18:43:36;1.90;99.90
39585;DHT22;25278;53.674;10.014;2022-12-07T18:46:12;1.70;99.90
39585;DHT22;25278;53.674;10.014;2022-12-07T18:48:37;1.60;99.90
39585;DHT22;25278;53.674;10.014;2022-12-07T18:51:05;1.60;99.90
39585;DHT22;25278;53.674;10.014;2022-12-07T18:53:31;1.60;99.90
39585;DHT22;25278;53.674;10.014;2022-12-07T18:56:09;1.70;99.90
39585;DHT22;25278;53.674;10.014;2022-12-07T18:58:36;1.70;99.90
39585;DHT22;25278;53.674;10.014;2022-12-07T19:01:01;1.80;99.90
39585;DHT22;25278;53.674;10.014;2022-12-07T19:03:27;1.80;99.90
39585;DHT22;25278;53.674;10.014;2022-12-07T19:05:53;1.90;99.90
39585;DHT22;25278;53.674;10.014;2022-12-07T19:08:22;1.90;99.90
39585;DHT22;25278;53.674;10.014;2022-12-07T19:10:47;2.00;99.90
39585;DHT22;25278;53.674;10.014;2022-12-07T19:13:13;2.00;99.90
39585;DHT22;25278;53.674;10.014;2022-12-07T19:15:39;1.90;99.90
39585;DHT22;25278;53.674;10.014;2022-12-07T19:18:06;1.90;99.90
39585;DHT22;25278;53.674;10.014;2022-12-07T19:20:31;1.90;99.90
39585;DHT22;25278;53.674;10.014;2022-12-07T19:22:57;1.90;99.90
39585;DHT22;25278;53.674;10.014;2022-12-07T19:25:22;1.90;99.90
39585;DHT22;25278;53.674;10.014;2022-12-07T19:27:48;1.80;99.90
39585;DHT22;25278;53.674;10.014;2022-12-07T19:30:13;1.90;99.90
39585;DHT22;25278;53.674;10.014;2022-12-07T19:32:39;1.80;99.90
39585;DHT22;25278;53.674;10.014;2022-12-07T19:35:05;1.80;99.90
39585;DHT22;25278;53.674;10.014;2022-12-07T19:37:30;1.70;99.90
39585;DHT22;25278;53.674;10.014;2022-12-07T19:39:56;1.80;99.90
39585;DHT22;25278;53.674;10.014;2022-12-07T19:42:22;1.80;99.90
39585;DHT22;25278;53.674;10.014;2022-12-07T19:44:47;1.70;99.90
39585;DHT22;25278;53.674;10.014;2022-12-07T19:47:14;1.70;99.90
39585;DHT22;25278;53.674;10.014;2022-12-07T19:49:42;1.70;99.90
39585;DHT22;25278;53.674;10.014;2022-12-07T19:52:09;1.80;99.90
39585;DHT22;25278;53.674;10.014;2022-12-07T19:54:35;1.80;99.90
39585;DHT22;25278;53.674;10.014;2022-12-07T19:57:01;1.70;99.90
39585;DHT22;25278;53.674;10.014;2022-12-07T19:59:29;1.70;99.90
39585;DHT22;25278;53.674;10.014;2022-12-07T20:01:55;1.60;99.90
39585;DHT22;25278;53.674;10.014;2022-12-07T20:04:26;1.60;99.90
39585;DHT22;25278;53.674;10.014;2022-12-07T20:06:54;1.60;99.90
39585;DHT22;25278;53.674;10.014;2022-12-07T20:09:20;1.50;99.90
39585;DHT22;25278;53.674;10.014;2022-12-07T20:11:46;1.50;99.90
39585;DHT22;25278;53.674;10.014;2022-12-07T20:14:30;1.50;99.90
39585;DHT22;25278;53.674;10.014;2022-12-07T20:16:56;1.40;99.90
39585;DHT22;25278;53.674;10.014;2022-12-07T20:19:22;1.50;99.90
39585;DHT22;25278;53.674;10.014;2022-12-07T20:21:48;1.40;99.90
39585;DHT22;25278;53.674;10.014;2022-12-07T20:24:19;1.40;99.90
39585;DHT22;25278;53.674;10.014;2022-12-07T20:26:47;1.50;99.90
39585;DHT22;25278;53.674;10.014;2022-12-07T20:29:16;1.40;99.90
39585;DHT22;25278;53.674;10.014;2022-12-07T20:31:43;1.40;99.90
39585;DHT22;25278;53.674;10.014;2022-12-07T20:34:09;1.40;99.90
39585;DHT22;25278;53.674;10.014;2022-12-07T20:36:35;1.40;99.90
39585;DHT22;25278;53.674;10.014;2022-12-07T20:39:01;1.30;99.90
39585;DHT22;25278;53.674;10.014;2022-12-07T20:41:27;1.20;99.90
39585;DHT22;25278;53.674;10.014;2022-12-07T20:44:14;1.20;99.90
39585;DHT22;25278;53.674;10.014;2022-12-07T20:46:40;1.10;99.90
39585;DHT22;25278;53.674;10.014;2022-12-07T20:49:06;1.10;99.90
39585;DHT22;25278;53.674;10.014;2022-12-07T20:51:32;1.00;99.90
39585;DHT22;25278;53.674;10.014;2022-12-07T20:53:59;1.00;99.90
39585;DHT22;25278;53.674;10.014;2022-12-07T20:56:29;1.00;99.90
39585;DHT22;25278;53.674;10.014;2022-12-07T20:58:57;1.10;99.90
39585;DHT22;25278;53.674;10.014;2022-12-07T21:01:24;1.10;99.90
39585;DHT22;25278;53.674;10.014;2022-12-07T21:03:57;1.20;99.90
39585;DHT22;25278;53.674;10.014;2022-12-07T21:06:23;1.20;99.90
39585;DHT22;25278;53.674;10.014;2022-12-07T21:08:50;1.20;99.90
39585;DHT22;25278;53.674;10.014;2022-12-07T21:11:17;1.30;99.90
39585;DHT22;25278;53.674;10.014;2022-12-07T21:13:44;1.40;99.90
39585;DHT22;25278;53.674;10.014;2022-12-07T21:16:14;1.50;99.90
39585;DHT22;25278;53.674;10.014;2022-12-07T21:18:40;1.70;99.90
39585;DHT22;25278;53.674;10.014;2022-12-07T21:21:07;1.80;99.90
39585;DHT22;25278;53.674;10.014;2022-12-07T21:23:33;1.70;99.90
39585;DHT22;25278;53.674;10.014;2022-12-07T21:26:00;1.80;99.90
39585;DHT22;25278;53.674;10.014;2022-12-07T21:28:26;1.90;99.90
39585;DHT22;25278;53.674;10.014;2022-12-07T21:30:56;1.90;99.90